Time;durP1;ratioP1;P1;durP2;ratioP2;P2;SDS_P1;SDS_P2;PMS_P1;PMS_P2;Temp;Humidity;BMP_temperature;BMP_pressure;BME280_temperature;BME280_humidity;BME280_pressure;Samples;Min_cycle;Max_cycle;Signal;HPM_P1;HPM_P2
2023/03/23 00:01:24;;;;;;;3.15;2.85;;;13.00;99.90;;;;;;5053622;28;20197;-58
2023/03/23 00:03:51;;;;;;;4.15;2.70;;;13.00;99.90;;;;;;5053518;28;20171;-58
2023/03/23 00:06:18;;;;;;;3.55;2.95;;;13.00;99.90;;;;;;5053396;28;20176;-58
2023/03/23 00:08:46;;;;;;;3.33;2.90;;;13.00;99.90;;;;;;5053207;28;20277;-59
2023/03/23 00:11:14;;;;;;;3.13;2.70;;;13.00;99.90;;;;;;5053315;28;20659;-57
2023/03/23 00:13:45;;;;;;;3.03;2.70;;;13.00;99.90;;;;;;5053420;28;20179;-57
2023/03/23 00:16:18;;;;;;;4.13;3.10;;;13.00;99.90;;;;;;5053392;28;20175;-58
2023/03/23 00:18:52;;;;;;;3.50;2.95;;;13.00;99.90;;;;;;5053332;28;20258;-59
2023/03/23 00:21:18;;;;;;;3.78;3.00;;;13.00;99.90;;;;;;5053259;28;20171;-58
2023/03/23 00:23:44;;;;;;;3.75;3.45;;;13.00;99.90;;;;;;5053230;28;20227;-59
2023/03/23 00:26:11;;;;;;;3.83;3.20;;;13.00;99.90;;;;;;5053299;28;20688;-58
2023/03/23 00:28:38;;;;;;;5.80;3.53;;;13.00;99.90;;;;;;5053084;28;20175;-58
2023/03/23 00:31:06;;;;;;;3.80;3.50;;;13.00;99.90;;;;;;5053193;28;20175;-58
2023/03/23 00:33:37;;;;;;;4.68;3.58;;;13.00;99.90;;;;;;5052889;28;20278;-59
2023/03/23 00:36:05;;;;;;;4.50;3.85;;;13.00;99.90;;;;;;5053274;28;20171;-58
2023/03/23 00:38:31;;;;;;;4.50;3.90;;;13.00;99.90;;;;;;5053092;28;20182;-58
2023/03/23 00:40:57;;;;;;;3.70;3.35;;;13.00;99.90;;;;;;5053124;28;20236;-59
2023/03/23 00:43:28;;;;;;;5.43;3.50;;;13.00;99.90;;;;;;5053035;28;20179;-58
2023/03/23 00:45:55;;;;;;;4.85;3.95;;;13.00;99.90;;;;;;5052947;28;20644;-58
2023/03/23 00:48:24;;;;;;;4.38;3.33;;;13.00;99.90;;;;;;5051497;28;20586;-59
2023/03/23 00:50:52;;;;;;;5.03;3.75;;;13.00;99.90;;;;;;5053070;28;20178;-58
2023/03/23 00:53:18;;;;;;;3.97;3.58;;;13.00;99.90;;;;;;5052996;28;20225;-57
2023/03/23 00:55:45;;;;;;;4.97;3.85;;;13.00;99.90;;;;;;5052901;28;20205;-59
2023/03/23 00:58:12;;;;;;;4.10;3.15;;;13.00;99.90;;;;;;5052870;28;20206;-58
2023/03/23 01:00:39;;;;;;;3.70;3.40;;;13.00;99.90;;;;;;5053009;28;20191;-58
2023/03/23 01:03:06;;;;;;;3.78;3.03;;;13.00;99.90;;;;;;5052995;28;20175;-58
2023/03/23 01:05:37;;;;;;;5.45;3.78;;;13.00;99.90;;;;;;5052885;28;20306;-59
2023/03/23 01:08:03;;;;;;;4.60;3.35;;;13.10;99.90;;;;;;5054117;28;20254;-58
2023/03/23 01:10:32;;;;;;;5.22;3.65;;;13.00;99.90;;;;;;5056610;28;20294;-58
2023/03/23 01:13:00;;;;;;;3.33;3.00;;;13.00;99.90;;;;;;5056620;28;20591;-59
2023/03/23 01:15:26;;;;;;;4.15;2.88;;;13.10;99.90;;;;;;5056494;28;20171;-58
2023/03/23 01:17:52;;;;;;;3.60;3.22;;;13.10;99.90;;;;;;5056582;28;20624;-58
2023/03/23 01:20:17;;;;;;;3.28;3.00;;;13.00;99.90;;;;;;5056740;28;20225;-58
2023/03/23 01:22:44;;;;;;;3.17;2.88;;;13.10;99.90;;;;;;5056409;28;20227;-58
2023/03/23 01:25:12;;;;;;;4.60;3.05;;;13.00;99.90;;;;;;5056480;28;20172;-58
2023/03/23 01:27:38;;;;;;;4.50;3.00;;;13.00;99.90;;;;;;5056402;28;20176;-58
2023/03/23 01:30:05;;;;;;;4.88;2.95;;;13.10;99.90;;;;;;5056229;28;20231;-58
2023/03/23 01:32:31;;;;;;;4.35;2.80;;;13.10;99.90;;;;;;5056452;28;20184;-58
2023/03/23 01:34:58;;;;;;;3.47;2.85;;;13.10;99.90;;;;;;5056311;28;20221;-59
2023/03/23 01:37:26;;;;;;;3.78;2.80;;;13.10;99.90;;;;;;5056357;28;20183;-58
2023/03/23 01:39:53;;;;;;;3.22;2.58;;;13.10;99.90;;;;;;5056249;28;20225;-58
2023/03/23 01:42:22;;;;;;;3.28;2.47;;;13.10;99.90;;;;;;5056077;28;20599;-58
2023/03/23 01:44:48;;;;;;;3.55;2.83;;;13.10;99.90;;;;;;5055964;28;20180;-58
2023/03/23 01:47:14;;;;;;;3.30;2.95;;;13.10;99.90;;;;;;5056142;28;20187;-57
2023/03/23 01:49:46;;;;;;;3.30;2.75;;;13.20;99.90;;;;;;5055849;28;20676;-58
2023/03/23 01:52:29;;;;;;;3.65;2.83;;;13.10;99.90;;;;;;5056097;28;20608;-58
2023/03/23 01:54:56;;;;;;;3.00;2.60;;;13.10;99.90;;;;;;5055929;28;20171;-58
2023/03/23 01:57:26;;;;;;;3.33;2.72;;;13.10;99.90;;;;;;5055806;28;20171;-58
2023/03/23 01:59:55;;;;;;;3.13;2.63;;;13.10;99.90;;;;;;5056031;28;20579;-57
2023/03/23 02:02:24;;;;;;;3.70;2.92;;;13.10;99.90;;;;;;5054599;28;20634;-59
2023/03/23 02:04:51;;;;;;;4.55;2.63;;;13.10;99.90;;;;;;5055719;28;20694;-58
2023/03/23 02:07:20;;;;;;;3.35;2.88;;;13.10;99.90;;;;;;5055601;28;20171;-58
2023/03/23 02:09:45;;;;;;;3.08;2.60;;;13.00;99.90;;;;;;5055525;28;20206;-59
2023/03/23 02:12:12;;;;;;;5.35;2.30;;;13.10;99.90;;;;;;5055578;28;20218;-58
2023/03/23 02:14:37;;;;;;;2.78;2.15;;;13.00;99.90;;;;;;5055630;28;20179;-58
2023/03/23 02:17:13;;;;;;;2.33;1.98;;;13.00;99.90;;;;;;5055415;28;20198;-58
2023/03/23 02:20:32;;;;;;;3.05;2.10;;;13.10;99.90;;;;;;5054944;28;20263;-58
2023/03/23 02:23:19;;;;;;;2.63;2.05;;;13.00;99.90;;;;;;5013267;28;20228;-58
2023/03/23 02:25:55;;;;;;;3.80;1.85;;;13.00;99.90;;;;;;5055366;28;20187;-58
2023/03/23 02:28:35;;;;;;;3.33;1.92;;;13.00;99.90;;;;;;5055356;28;20180;-59
2023/03/23 02:31:16;;;;;;;2.83;2.05;;;13.00;99.90;;;;;;5055339;28;20183;-58
2023/03/23 02:34:03;;;;;;;3.30;1.80;;;13.00;99.90;;;;;;5055240;28;20573;-58
2023/03/23 02:36:35;;;;;;;2.30;1.83;;;13.00;99.90;;;;;;5055171;28;20171;-58
2023/03/23 02:39:10;;;;;;;2.45;1.60;;;13.00;99.90;;;;;;5055360;28;20160;-58
2023/03/23 02:41:44;;;;;;;4.38;2.03;;;13.00;99.90;;;;;;5055193;28;20163;-58
2023/03/23 02:44:12;;;;;;;4.43;1.60;;;12.90;99.90;;;;;;5055031;28;20171;-58
2023/03/23 02:46:39;;;;;;;2.75;1.55;;;13.00;99.90;;;;;;5054952;28;20182;-58
2023/03/23 02:49:07;;;;;;;5.28;1.70;;;12.90;99.90;;;;;;5054795;28;20207;-58
2023/03/23 02:51:35;;;;;;;4.85;1.85;;;12.80;99.90;;;;;;5054768;28;20164;-58
2023/03/23 02:54:03;;;;;;;4.07;2.05;;;12.80;99.90;;;;;;5054769;28;20171;-58
2023/03/23 02:56:29;;;;;;;5.53;2.00;;;12.80;99.90;;;;;;5054700;28;20199;-58
2023/03/23 02:58:56;;;;;;;6.35;2.00;;;12.80;99.90;;;;;;5054657;28;20581;-58
2023/03/23 03:01:35;;;;;;;5.55;1.95;;;12.90;99.90;;;;;;5054568;28;20172;-58
2023/03/23 03:04:12;;;;;;;3.72;1.85;;;12.90;99.90;;;;;;5054558;28;20663;-58
2023/03/23 03:07:02;;;;;;;3.90;1.90;;;12.90;99.90;;;;;;5054717;28;20175;-58
2023/03/23 03:09:53;;;;;;;3.88;1.85;;;12.90;99.90;;;;;;5054430;28;20234;-58
2023/03/23 03:12:41;;;;;;;4.43;2.15;;;12.90;99.90;;;;;;5054685;28;20163;-58
2023/03/23 03:15:17;;;;;;;6.35;2.03;;;12.90;99.90;;;;;;5054360;28;20186;-59
2023/03/23 03:17:53;;;;;;;3.80;1.83;;;12.90;99.90;;;;;;5054410;28;20194;-58
2023/03/23 03:20:21;;;;;;;4.57;1.73;;;12.80;99.90;;;;;;5054297;28;20175;-58
2023/03/23 03:22:47;;;;;;;4.95;2.03;;;12.80;99.90;;;;;;5053929;28;20285;-58
2023/03/23 03:25:18;;;;;;;4.70;1.88;;;12.90;99.90;;;;;;5054434;28;20207;-58
2023/03/23 03:27:45;;;;;;;4.68;2.03;;;12.90;99.90;;;;;;5054133;28;20186;-59
2023/03/23 03:30:17;;;;;;;3.20;1.77;;;12.90;99.90;;;;;;5053732;28;20210;-58
2023/03/23 03:32:50;;;;;;;4.55;1.92;;;12.90;99.90;;;;;;5053071;28;20174;-58
2023/03/23 03:35:17;;;;;;;7.10;1.85;;;12.90;99.90;;;;;;5053975;28;20175;-58
2023/03/23 03:37:43;;;;;;;4.47;1.70;;;13.00;99.90;;;;;;5054084;28;20531;-58
2023/03/23 03:40:13;;;;;;;6.38;2.05;;;13.00;99.90;;;;;;5054025;28;20182;-58
2023/03/23 03:42:43;;;;;;;5.72;1.92;;;13.00;99.90;;;;;;5053894;28;20264;-58
2023/03/23 03:45:12;;;;;;;3.13;1.55;;;12.90;99.90;;;;;;5053923;28;20210;-58
2023/03/23 03:47:38;;;;;;;3.67;1.73;;;13.00;99.90;;;;;;5053682;28;20186;-58
2023/03/23 03:50:05;;;;;;;5.15;1.58;;;13.00;99.90;;;;;;5053778;28;20215;-58
2023/03/23 03:52:31;;;;;;;4.80;1.75;;;12.90;99.90;;;;;;5053811;28;20178;-58
2023/03/23 03:54:57;;;;;;;5.28;2.00;;;12.80;99.90;;;;;;5053624;28;20655;-58
2023/03/23 03:57:24;;;;;;;5.35;2.13;;;12.70;99.90;;;;;;5053587;28;20258;-58
2023/03/23 03:59:50;;;;;;;4.00;1.60;;;12.70;99.90;;;;;;5053543;28;20179;-58
2023/03/23 04:02:19;;;;;;;4.47;1.73;;;12.80;99.90;;;;;;5053403;28;20575;-57
2023/03/23 04:04:47;;;;;;;5.00;1.88;;;12.80;99.90;;;;;;5053574;28;20206;-58
2023/03/23 04:07:13;;;;;;;3.88;1.98;;;12.70;99.90;;;;;;5053647;28;20170;-58
2023/03/23 04:09:40;;;;;;;4.18;1.92;;;12.70;99.90;;;;;;5053320;28;20250;-58
2023/03/23 04:12:06;;;;;;;4.47;1.88;;;12.80;99.90;;;;;;5053414;28;20171;-58
2023/03/23 04:14:32;;;;;;;4.05;1.90;;;12.80;99.90;;;;;;5053290;28;20540;-58
2023/03/23 04:16:58;;;;;;;4.60;1.70;;;12.90;99.90;;;;;;5053288;28;20178;-58
2023/03/23 04:19:25;;;;;;;5.07;1.95;;;12.90;99.90;;;;;;5053612;28;20250;-58
2023/03/23 04:21:51;;;;;;;7.22;2.40;;;12.90;99.90;;;;;;5053377;28;20183;-58
2023/03/23 04:24:20;;;;;;;4.32;1.75;;;12.90;99.90;;;;;;5053131;28;20268;-57
2023/03/23 04:26:46;;;;;;;3.95;1.70;;;12.90;99.90;;;;;;5053184;28;20207;-58
2023/03/23 04:29:12;;;;;;;4.82;1.70;;;12.80;99.90;;;;;;5052951;28;20238;-58
2023/03/23 04:31:40;;;;;;;4.03;1.90;;;12.80;99.90;;;;;;5053225;28;20180;-58
2023/03/23 04:34:06;;;;;;;6.45;2.00;;;12.80;99.90;;;;;;5052938;28;20713;-58
2023/03/23 04:36:33;;;;;;;6.40;2.00;;;12.80;99.90;;;;;;5053425;28;20176;-59
2023/03/23 04:39:00;;;;;;;6.13;1.90;;;12.70;99.90;;;;;;5053123;28;20312;-58
2023/03/23 04:41:26;;;;;;;9.18;2.33;;;12.70;99.90;;;;;;5052943;28;20175;-58
2023/03/23 04:43:53;;;;;;;6.43;2.25;;;12.70;99.90;;;;;;5052494;28;20167;-58
2023/03/23 04:46:21;;;;;;;5.50;2.10;;;12.70;99.90;;;;;;5053089;28;20662;-58
2023/03/23 04:48:47;;;;;;;7.05;2.08;;;12.70;99.90;;;;;;5052954;28;20171;-58
2023/03/23 04:51:13;;;;;;;7.35;2.30;;;12.70;99.90;;;;;;5052988;28;20211;-58
2023/03/23 04:53:40;;;;;;;7.10;2.00;;;12.60;99.90;;;;;;5053029;28;20268;-58
2023/03/23 04:56:07;;;;;;;5.47;1.88;;;12.70;99.90;;;;;;5052856;28;20540;-58
2023/03/23 04:58:33;;;;;;;7.32;2.10;;;12.60;99.90;;;;;;5052773;28;20184;-58
2023/03/23 05:01:04;;;;;;;7.10;1.95;;;12.50;99.90;;;;;;5052947;28;20180;-58
2023/03/23 05:03:29;;;;;;;5.05;2.28;;;12.50;99.90;;;;;;5052943;28;20175;-58
2023/03/23 05:05:55;;;;;;;5.15;2.08;;;12.50;99.90;;;;;;5053146;28;20513;-58
2023/03/23 05:08:24;;;;;;;6.00;2.00;;;12.50;99.90;;;;;;5051705;28;20514;-58
2023/03/23 05:10:55;;;;;;;6.20;2.30;;;12.60;99.90;;;;;;5052705;28;20199;-58
2023/03/23 05:13:21;;;;;;;7.38;2.03;;;12.60;99.90;;;;;;5053032;28;20156;-58
2023/03/23 05:15:48;;;;;;;8.05;2.22;;;12.70;99.90;;;;;;5052909;28;20187;-58
2023/03/23 05:18:14;;;;;;;4.47;1.92;;;12.60;99.90;;;;;;5052673;28;20652;-58
2023/03/23 05:20:41;;;;;;;6.32;2.10;;;12.70;99.90;;;;;;5052698;28;20179;-58
2023/03/23 05:23:07;;;;;;;8.07;2.17;;;12.60;99.90;;;;;;5052378;28;20227;-58
2023/03/23 05:25:39;;;;;;;6.90;2.63;;;12.60;99.90;;;;;;5052272;28;20183;-59
2023/03/23 05:28:07;;;;;;;6.47;2.70;;;12.60;99.90;;;;;;5052867;28;20258;-58
2023/03/23 05:30:33;;;;;;;5.55;2.25;;;12.70;99.90;;;;;;5052616;28;20219;-58
2023/03/23 05:32:59;;;;;;;6.78;2.25;;;12.70;99.90;;;;;;5052507;28;20520;-57
2023/03/23 05:35:25;;;;;;;5.63;2.28;;;12.60;99.90;;;;;;5052084;28;20222;-58
2023/03/23 05:37:53;;;;;;;5.15;2.22;;;12.60;99.90;;;;;;5052353;28;20210;-58
2023/03/23 05:40:20;;;;;;;12.82;3.05;;;12.50;99.90;;;;;;5051897;28;20656;-58
2023/03/23 05:42:47;;;;;;;21.05;3.00;;;12.60;99.90;;;;;;5052197;28;20239;-59
2023/03/23 05:45:13;;;;;;;8.02;2.38;;;12.50;99.90;;;;;;5051998;28;20167;-58
2023/03/23 05:47:40;;;;;;;22.98;3.55;;;12.40;99.90;;;;;;5051771;28;20221;-58
2023/03/23 05:50:08;;;;;;;6.07;2.42;;;12.30;99.90;;;;;;5051553;28;20269;-58
2023/03/23 05:52:37;;;;;;;5.65;2.80;;;12.40;99.90;;;;;;5051663;28;20636;-59
2023/03/23 05:55:05;;;;;;;5.80;2.70;;;12.30;99.90;;;;;;5052574;28;20644;-58
2023/03/23 05:57:31;;;;;;;8.90;2.92;;;12.30;99.90;;;;;;5055272;28;20214;-58
2023/03/23 05:59:57;;;;;;;6.88;2.90;;;12.20;99.90;;;;;;5054937;28;20575;-58
2023/03/23 06:02:24;;;;;;;8.73;2.90;;;12.10;99.90;;;;;;5055168;28;20237;-59
2023/03/23 06:04:57;;;;;;;6.20;3.03;;;12.20;99.90;;;;;;5054885;28;20183;-59
2023/03/23 06:07:25;;;;;;;9.00;2.95;;;12.10;99.90;;;;;;5054744;28;20597;-58
2023/03/23 06:09:52;;;;;;;6.95;2.72;;;12.10;99.90;;;;;;5054906;28;20203;-58
2023/03/23 06:12:20;;;;;;;10.93;3.03;;;12.10;99.90;;;;;;5054987;28;20262;-58
2023/03/23 06:14:48;;;;;;;6.05;2.65;;;12.00;99.90;;;;;;5053515;28;20214;-59
2023/03/23 06:17:16;;;;;;;7.25;2.95;;;11.90;99.90;;;;;;5054813;28;20215;-59
2023/03/23 06:19:41;;;;;;;13.48;3.90;;;11.90;99.90;;;;;;5054451;28;20593;-58
2023/03/23 06:22:07;;;;;;;6.60;2.30;;;12.10;99.90;;;;;;5054409;28;20182;-59
2023/03/23 06:24:34;;;;;;;4.90;1.60;;;12.10;99.90;;;;;;5054860;28;20283;-59
2023/03/23 06:27:00;;;;;;;2.95;1.42;;;11.90;99.90;;;;;;5054687;28;20258;-58
2023/03/23 06:29:25;;;;;;;3.33;1.50;;;11.70;99.90;;;;;;5054537;28;20294;-58
2023/03/23 06:31:55;;;;;;;3.50;1.58;;;11.70;99.90;;;;;;5054586;28;20183;-58
2023/03/23 06:34:21;;;;;;;4.65;1.40;;;11.60;99.90;;;;;;5054305;28;20172;-59
2023/03/23 06:36:47;;;;;;;4.68;1.63;;;11.40;99.90;;;;;;5054347;28;20644;-58
2023/03/23 06:39:13;;;;;;;3.42;1.40;;;11.40;99.90;;;;;;5054697;28;20258;-58
2023/03/23 06:41:39;;;;;;;7.35;1.88;;;11.30;99.90;;;;;;5054449;28;20565;-58
2023/03/23 06:44:06;;;;;;;5.43;1.65;;;11.30;99.90;;;;;;5054186;28;20182;-58
2023/03/23 06:46:32;;;;;;;5.97;1.70;;;11.20;99.90;;;;;;5054323;28;20194;-59
2023/03/23 06:48:58;;;;;;;5.45;1.70;;;11.10;99.90;;;;;;5054118;28;20652;-59
2023/03/23 06:51:24;;;;;;;5.30;1.75;;;11.20;99.90;;;;;;5054119;28;20176;-58
2023/03/23 06:53:50;;;;;;;5.35;1.90;;;11.20;99.90;;;;;;5054215;28;20176;-58
2023/03/23 06:56:16;;;;;;;8.88;1.92;;;11.10;99.90;;;;;;5053916;28;20654;-58
2023/03/23 06:58:42;;;;;;;6.18;1.90;;;11.10;99.90;;;;;;5054094;28;20167;-58
2023/03/23 07:01:09;;;;;;;5.57;1.60;;;11.30;99.90;;;;;;5053996;28;20473;-59
2023/03/23 07:03:35;;;;;;;4.75;1.73;;;11.20;99.90;;;;;;5053871;28;20275;-59
2023/03/23 07:06:01;;;;;;;5.65;1.65;;;11.20;99.90;;;;;;5053553;28;20184;-58
2023/03/23 07:08:27;;;;;;;4.40;1.50;;;11.20;99.90;;;;;;5054019;28;20644;-58
2023/03/23 07:10:54;;;;;;;3.17;1.60;;;11.10;99.90;;;;;;5053852;28;20298;-58
2023/03/23 07:13:20;;;;;;;2.53;1.38;;;11.10;99.90;;;;;;5053876;28;20175;-59
2023/03/23 07:15:46;;;;;;;5.10;1.55;;;11.20;99.90;;;;;;5053628;28;20179;-58
2023/03/23 07:18:12;;;;;;;3.25;1.50;;;11.30;99.90;;;;;;5053466;28;20228;-58
2023/03/23 07:20:37;;;;;;;3.13;1.42;;;11.30;99.90;;;;;;5053831;28;20171;-58
2023/03/23 07:23:05;;;;;;;5.40;2.20;;;11.10;99.90;;;;;;5053467;28;20655;-58
2023/03/23 07:25:32;;;;;;;3.83;1.92;;;11.20;99.90;;;;;;5053556;28;20186;-58
2023/03/23 07:28:02;;;;;;;3.42;1.70;;;11.30;99.90;;;;;;5053453;28;20186;-58
2023/03/23 07:30:29;;;;;;;2.83;1.42;;;11.20;99.90;;;;;;5053365;28;20203;-58
2023/03/23 07:32:55;;;;;;;4.10;1.45;;;11.00;99.90;;;;;;5053269;28;20325;-58
2023/03/23 07:35:22;;;;;;;2.97;1.08;;;11.00;99.90;;;;;;5053502;28;20175;-58
2023/03/23 07:37:48;;;;;;;2.13;1.10;;;11.10;99.90;;;;;;5053398;28;20544;-58
2023/03/23 07:40:15;;;;;;;3.33;1.25;;;11.20;99.90;;;;;;5053231;28;20290;-58
2023/03/23 07:42:45;;;;;;;3.88;1.38;;;11.20;99.90;;;;;;5053197;28;20178;-58
2023/03/23 07:45:13;;;;;;;3.97;1.52;;;11.10;99.90;;;;;;5053093;28;20182;-58
2023/03/23 07:47:39;;;;;;;3.38;1.35;;;11.10;99.90;;;;;;5053054;28;20191;-58
2023/03/23 07:50:06;;;;;;;3.15;1.38;;;11.10;99.90;;;;;;5053141;28;20310;-59
2023/03/23 07:52:33;;;;;;;3.78;1.55;;;11.10;99.90;;;;;;5053024;28;20176;-59
2023/03/23 07:54:59;;;;;;;2.97;1.55;;;11.20;99.90;;;;;;5053019;28;20175;-58
2023/03/23 07:57:25;;;;;;;4.15;1.60;;;11.30;99.90;;;;;;5053040;28;20643;-58
2023/03/23 07:59:50;;;;;;;4.47;1.73;;;11.40;99.90;;;;;;5052878;28;20267;-58
2023/03/23 08:02:16;;;;;;;4.55;1.75;;;11.60;99.90;;;;;;5052768;28;20174;-58
2023/03/23 08:04:42;;;;;;;3.50;1.83;;;11.60;99.90;;;;;;5052958;28;20179;-58
2023/03/23 08:07:08;;;;;;;5.10;1.55;;;11.70;99.90;;;;;;5052882;28;20167;-59
2023/03/23 08:09:34;;;;;;;4.25;1.85;;;11.70;99.90;;;;;;5052742;28;20347;-59
2023/03/23 08:11:59;;;;;;;5.28;1.77;;;11.80;99.90;;;;;;5052649;28;20167;-58
2023/03/23 08:14:27;;;;;;;7.10;1.90;;;11.70;99.90;;;;;;5052603;28;20178;-58
2023/03/23 08:16:55;;;;;;;6.78;2.38;;;11.90;99.90;;;;;;5052613;28;20172;-58
2023/03/23 08:19:21;;;;;;;5.25;2.00;;;11.90;99.90;;;;;;5052210;28;20175;-58
2023/03/23 08:21:47;;;;;;;5.70;1.65;;;12.00;99.90;;;;;;5052707;28;20224;-59
2023/03/23 08:24:14;;;;;;;6.07;1.80;;;12.10;99.90;;;;;;5052482;28;20258;-58
2023/03/23 08:26:40;;;;;;;4.00;1.50;;;12.20;99.90;;;;;;5052384;28;20179;-58
2023/03/23 08:29:06;;;;;;;4.97;1.50;;;12.40;99.90;;;;;;5052249;28;20207;-58
2023/03/23 08:31:34;;;;;;;3.28;1.60;;;12.40;99.90;;;;;;5052693;28;20313;-59
2023/03/23 08:34:00;;;;;;;4.75;1.80;;;12.40;99.90;;;;;;5052742;28;20529;-58
2023/03/23 08:36:27;;;;;;;4.18;2.10;;;12.40;99.90;;;;;;5052456;28;20166;-58
2023/03/23 08:38:53;;;;;;;3.97;1.65;;;12.60;99.90;;;;;;5052304;28;20273;-58
2023/03/23 08:41:19;;;;;;;4.95;1.60;;;12.80;99.90;;;;;;5052368;28;20203;-58
2023/03/23 08:43:46;;;;;;;4.38;1.65;;;12.80;99.90;;;;;;5052177;28;20233;-58
2023/03/23 08:46:12;;;;;;;3.80;1.60;;;12.80;99.90;;;;;;5052363;28;20592;-59
2023/03/23 08:48:38;;;;;;;4.25;1.92;;;12.90;99.90;;;;;;5052364;28;20571;-58
2023/03/23 08:51:05;;;;;;;4.70;2.25;;;13.00;99.90;;;;;;5052179;28;20227;-58
2023/03/23 08:53:31;;;;;;;4.93;2.05;;;13.10;99.90;;;;;;5052227;28;20180;-58
2023/03/23 08:56:07;;;;;;;7.30;1.98;;;13.20;99.90;;;;;;5050843;28;20175;-58
2023/03/23 08:58:34;;;;;;;4.47;2.10;;;13.10;99.90;;;;;;5052086;28;20182;-58
2023/03/23 09:01:00;;;;;;;5.70;2.05;;;13.30;99.90;;;;;;5052207;28;20190;-58
2023/03/23 09:03:25;;;;;;;4.93;1.48;;;13.20;99.90;;;;;;5052133;28;20171;-59
2023/03/23 09:05:53;;;;;;;4.70;1.88;;;13.30;99.90;;;;;;5052065;28;20171;-58
2023/03/23 09:08:19;;;;;;;5.40;2.10;;;13.30;99.90;;;;;;5052073;28;20168;-58
2023/03/23 09:10:44;;;;;;;5.22;1.98;;;13.40;99.90;;;;;;5051834;28;20222;-59
2023/03/23 09:13:10;;;;;;;5.65;1.75;;;13.50;99.90;;;;;;5051838;28;20262;-58
2023/03/23 09:15:36;;;;;;;6.28;2.45;;;13.60;99.90;;;;;;5050742;28;20188;-58
2023/03/23 09:18:03;;;;;;;5.30;1.63;;;13.70;99.90;;;;;;5051994;28;20255;-58
2023/03/23 09:20:29;;;;;;;7.05;2.33;;;13.80;99.90;;;;;;5051859;28;20233;-58
2023/03/23 09:22:57;;;;;;;6.35;2.10;;;13.90;99.90;;;;;;5051943;28;20227;-58
2023/03/23 09:25:26;;;;;;;7.00;2.60;;;14.00;99.90;;;;;;5051705;28;20189;-58
2023/03/23 09:27:56;;;;;;;4.60;1.90;;;14.10;99.90;;;;;;5052007;28;20175;-58
2023/03/23 09:30:26;;;;;;;8.10;2.10;;;14.20;99.90;;;;;;5054908;28;20652;-58
2023/03/23 09:32:53;;;;;;;4.40;1.73;;;14.40;99.90;;;;;;5055848;28;20255;-58
2023/03/23 09:35:21;;;;;;;4.97;1.88;;;14.40;99.90;;;;;;5055713;28;20172;-58
2023/03/23 09:37:48;;;;;;;9.02;2.08;;;14.70;99.90;;;;;;5055391;28;20178;-58
2023/03/23 09:40:19;;;;;;;4.85;1.58;;;14.80;99.90;;;;;;5055335;28;20178;-58
2023/03/23 09:43:13;;;;;;;5.35;1.95;;;14.90;99.90;;;;;;5055611;28;20182;-58
2023/03/23 09:46:12;;;;;;;7.32;2.20;;;15.10;99.90;;;;;;5055388;28;20183;-58
2023/03/23 09:48:46;;;;;;;6.93;1.90;;;15.20;99.90;;;;;;5054188;28;20164;-58
2023/03/23 09:51:20;;;;;;;2.53;1.30;;;15.40;99.90;;;;;;5055489;28;20273;-58
2023/03/23 09:53:55;;;;;;;4.75;1.70;;;15.30;99.90;;;;;;5055469;28;20170;-58
2023/03/23 09:56:22;;;;;;;2.22;1.33;;;15.50;99.90;;;;;;5055279;28;20167;-58
2023/03/23 09:59:02;;;;;;;2.78;1.25;;;15.70;99.90;;;;;;5055094;28;20258;-58
2023/03/23 10:01:39;;;;;;;7.43;1.98;;;15.80;99.90;;;;;;5055254;28;20171;-58
2023/03/23 10:04:26;;;;;;;2.40;1.35;;;16.00;99.90;;;;;;5055169;28;20171;-58
2023/03/23 10:06:58;;;;;;;4.18;1.48;;;15.80;99.90;;;;;;5054932;28;20641;-58
2023/03/23 10:09:24;;;;;;;2.67;1.48;;;15.70;99.90;;;;;;5054767;28;20695;-59
2023/03/23 10:12:11;;;;;;;5.80;1.80;;;15.70;99.90;;;;;;5055179;28;20199;-59
2023/03/23 10:14:47;;;;;;;3.75;1.75;;;15.70;99.90;;;;;;5055276;28;20208;-58
2023/03/23 10:17:19;;;;;;;4.53;2.10;;;15.80;99.90;;;;;;5054867;28;20171;-58
2023/03/23 10:20:09;;;;;;;3.97;2.30;;;15.80;99.90;;;;;;5054722;28;20240;-59
2023/03/23 10:22:40;;;;;;;4.40;1.98;;;15.90;99.90;;;;;;5054722;28;20229;-58
2023/03/23 10:25:12;;;;;;;5.38;2.47;;;15.80;99.90;;;;;;5054690;28;20171;-58
2023/03/23 10:28:04;;;;;;;4.72;2.10;;;15.80;99.90;;;;;;5054669;28;20272;-58
2023/03/23 10:30:37;;;;;;;7.18;2.50;;;15.80;99.90;;;;;;5054748;28;20207;-58
2023/03/23 10:33:05;;;;;;;6.28;2.40;;;15.50;99.90;;;;;;5054795;28;20631;-58
2023/03/23 10:35:42;;;;;;;4.38;2.25;;;15.50;99.90;;;;;;5054619;28;20225;-58
2023/03/23 10:38:29;;;;;;;5.40;2.10;;;15.40;99.90;;;;;;5054308;28;20171;-59
2023/03/23 10:41:11;;;;;;;7.18;2.90;;;15.20;99.90;;;;;;5053831;28;20285;-59
2023/03/23 10:43:38;;;;;;;7.63;2.25;;;15.10;99.90;;;;;;5054738;28;20171;-58
2023/03/23 10:46:20;;;;;;;8.80;2.67;;;15.20;99.90;;;;;;5054359;28;20179;-58
2023/03/23 10:48:49;;;;;;;7.93;2.50;;;15.30;99.90;;;;;;5054115;28;20243;-58
2023/03/23 10:51:19;;;;;;;6.55;2.38;;;15.50;99.90;;;;;;5054222;28;20187;-58
2023/03/23 10:53:50;;;;;;;7.32;2.90;;;15.50;99.90;;;;;;5054236;28;20514;-58
2023/03/23 10:56:45;;;;;;;6.50;2.42;;;15.50;99.90;;;;;;5054898;28;20504;-58
2023/03/23 10:59:26;;;;;;;5.25;2.33;;;15.50;99.90;;;;;;5045610;28;20274;-58
2023/03/23 11:01:55;;;;;;;6.05;2.55;;;15.60;99.90;;;;;;5054888;28;20186;-58
2023/03/23 11:04:23;;;;;;;5.45;2.42;;;15.80;99.90;;;;;;5054794;28;20493;-58
2023/03/23 11:06:52;;;;;;;4.97;2.13;;;15.90;99.90;;;;;;5054707;28;20177;-58
2023/03/23 11:09:33;;;;;;;7.65;2.80;;;15.90;99.90;;;;;;5054527;28;20282;-58
2023/03/23 11:11:58;;;;;;;7.63;2.38;;;15.90;99.90;;;;;;5054525;28;20203;-58
2023/03/23 11:14:30;;;;;;;4.72;2.80;;;15.90;99.90;;;;;;5054475;28;20620;-59
2023/03/23 11:16:58;;;;;;;6.57;2.50;;;16.00;99.90;;;;;;5054471;28;20204;-59
2023/03/23 11:19:35;;;;;;;6.75;2.40;;;16.30;99.90;;;;;;5054411;28;20570;-58
2023/03/23 11:22:06;;;;;;;6.65;2.10;;;16.70;99.90;;;;;;5054636;28;20567;-58
2023/03/23 11:24:36;;;;;;;5.75;2.47;;;16.80;99.90;;;;;;5054423;28;20584;-59
2023/03/23 11:27:06;;;;;;;4.75;1.98;;;16.80;99.90;;;;;;5054271;28;20176;-58
2023/03/23 11:29:34;;;;;;;7.18;2.47;;;16.90;99.90;;;;;;5054280;28;20545;-58
2023/03/23 11:31:59;;;;;;;8.70;2.58;;;17.00;99.90;;;;;;5054411;28;20210;-58
2023/03/23 11:34:35;;;;;;;5.60;2.05;;;17.10;99.90;;;;;;5052823;28;20586;-58
2023/03/23 11:37:05;;;;;;;7.65;2.22;;;17.20;99.90;;;;;;5053935;28;20174;-58
2023/03/23 11:39:51;;;;;;;7.00;2.63;;;17.40;99.90;;;;;;5054385;28;20180;-59
2023/03/23 11:42:25;;;;;;;9.45;2.92;;;17.40;99.90;;;;;;5053872;28;20505;-58
2023/03/23 11:44:51;;;;;;;8.45;2.97;;;17.60;99.90;;;;;;5053890;28;20202;-58
2023/03/23 11:47:43;;;;;;;5.75;2.47;;;17.50;99.90;;;;;;5053760;28;20167;-58
2023/03/23 11:50:18;;;;;;;8.70;2.60;;;17.20;99.90;;;;;;5052869;28;20210;-59
2023/03/23 11:53:13;;;;;;;5.28;2.20;;;17.00;99.90;;;;;;5052947;28;20258;-59
2023/03/23 11:55:48;;;;;;;6.18;2.47;;;17.30;99.90;;;;;;5053629;28;20160;-58
2023/03/23 11:58:19;;;;;;;7.88;2.75;;;17.50;99.90;;;;;;5053872;28;20185;-58
2023/03/23 12:00:57;;;;;;;8.77;2.50;;;17.60;99.90;;;;;;5053703;28;20175;-59
2023/03/23 12:04:04;;;;;;;6.88;2.67;;;17.90;99.90;;;;;;5053506;28;20171;-58
2023/03/23 12:06:36;;;;;;;5.80;2.30;;;17.80;99.90;;;;;;5053342;28;20243;-58
2023/03/23 12:09:06;;;;;;;7.93;2.78;;;17.60;99.90;;;;;;5053486;28;20175;-58
2023/03/23 12:11:59;;;;;;;6.25;2.60;;;17.60;99.90;;;;;;5053429;28;20183;-59
2023/03/23 12:14:40;;;;;;;7.18;2.33;;;17.50;99.90;;;;;;5033915;28;20196;-58
2023/03/23 12:17:12;;;;;;;7.53;2.63;;;17.10;99.90;;;;;;5053571;28;20233;-58
2023/03/23 12:20:00;;;;;;;7.15;2.70;;;16.80;99.90;;;;;;5053349;28;20175;-58
2023/03/23 12:22:57;;;;;;;9.27;2.97;;;16.70;99.90;;;;;;5053089;28;20516;-58
2023/03/23 12:25:53;;;;;;;5.80;2.10;;;16.40;99.90;;;;;;5053422;28;20183;-59
2023/03/23 12:28:50;;;;;;;9.07;3.00;;;16.30;99.90;;;;;;5053394;28;20176;-58
2023/03/23 12:31:34;;;;;;;8.15;2.42;;;16.20;99.90;;;;;;5053164;28;20225;-58
2023/03/23 12:34:12;;;;;;;8.52;2.97;;;16.20;99.90;;;;;;5053427;28;20611;-58
2023/03/23 12:36:45;;;;;;;7.47;2.60;;;16.10;99.90;;;;;;5053212;28;20179;-58
2023/03/23 12:39:34;;;;;;;7.50;2.88;;;16.10;99.90;;;;;;5053119;28;20206;-58
2023/03/23 12:42:35;;;;;;;6.95;2.70;;;16.00;99.90;;;;;;5053165;28;20173;-58
2023/03/23 12:45:13;;;;;;;7.28;2.72;;;16.00;99.90;;;;;;5036944;28;20179;-58
2023/03/23 12:47:46;;;;;;;6.50;2.53;;;15.80;99.90;;;;;;5053016;28;20199;-58
2023/03/23 12:50:39;;;;;;;6.25;2.72;;;16.00;99.90;;;;;;5053128;28;20203;-58
2023/03/23 12:53:14;;;;;;;5.20;1.90;;;16.50;99.90;;;;;;5053073;28;20194;-58
2023/03/23 12:56:10;;;;;;;8.75;2.60;;;16.60;99.90;;;;;;5052880;28;20517;-59
2023/03/23 12:58:44;;;;;;;9.63;2.60;;;16.60;99.90;;;;;;5053023;28;20171;-58
2023/03/23 13:01:25;;;;;;;5.45;2.42;;;16.20;99.90;;;;;;5053193;28;20179;-58
2023/03/23 13:04:14;;;;;;;7.50;2.30;;;15.90;99.90;;;;;;5053561;28;20212;-58